createdAt,value
2019-06-26T00:00:23.285Z,59.88
2019-06-26T00:02:55.430Z,61.50
2019-06-26T00:05:27.407Z,61.57
2019-06-26T00:07:59.452Z,63.12
2019-06-26T00:10:31.348Z,59.10
2019-06-26T00:13:04.731Z,55.68
2019-06-26T00:15:36.730Z,57.06
2019-06-26T00:18:08.831Z,58.78
2019-06-26T00:20:40.798Z,59.86
2019-06-26T00:23:12.766Z,61.32
2019-06-26T00:25:44.694Z,61.99
2019-06-26T00:28:16.777Z,63.47
2019-06-26T00:30:48.768Z,59.31
2019-06-26T00:33:20.749Z,56.07
2019-06-26T00:35:53.065Z,58.26
2019-06-26T00:38:25.147Z,59.47
2019-06-26T00:40:57.058Z,61.05
2019-06-26T00:43:42.062Z,61.88
2019-06-26T00:46:09.055Z,63.80
2019-06-26T00:48:41.467Z,59.74
2019-06-26T00:51:13.446Z,54.96
2019-06-26T00:53:45.342Z,56.95
2019-06-26T00:56:17.289Z,58.63
2019-06-26T00:58:49.485Z,60.44
2019-06-26T01:01:21.466Z,61.47
2019-06-26T01:03:55.060Z,62.09
2019-06-26T01:06:45.245Z,63.18
2019-06-26T01:09:17.377Z,59.61
2019-06-26T01:11:49.425Z,56.06
2019-06-26T01:14:21.401Z,57.30
2019-06-26T01:16:53.383Z,59.60
2019-06-26T01:19:25.423Z,60.64
2019-06-26T01:21:57.317Z,61.81
2019-06-26T01:24:29.393Z,62.94
2019-06-26T01:27:01.306Z,60.14
2019-06-26T01:29:33.270Z,53.26
2019-06-26T01:32:06.725Z,51.71
2019-06-26T01:34:38.858Z,54.39
2019-06-26T01:37:11.825Z,56.01
2019-06-26T01:39:44.584Z,58.65
2019-06-26T01:42:16.499Z,60.36
2019-06-26T01:44:48.535Z,60.90
2019-06-26T01:47:20.442Z,61.54
2019-06-26T01:49:52.424Z,63.18
2019-06-26T01:52:24.250Z,58.48
2019-06-26T01:54:56.272Z,55.24
2019-06-26T01:57:28.281Z,56.64
2019-06-26T02:00:00.283Z,59.46
2019-06-26T02:02:32.353Z,60.51
2019-06-26T02:05:06.395Z,61.75
2019-06-26T02:07:38.374Z,62.91
2019-06-26T02:10:10.931Z,59.42
2019-06-26T02:12:43.146Z,55.74
2019-06-26T02:15:16.218Z,57.34
2019-06-26T02:17:48.203Z,59.75
2019-06-26T02:20:20.285Z,61.55
2019-06-26T02:22:52.589Z,62.41
2019-06-26T02:25:24.487Z,59.71
2019-06-26T02:27:56.842Z,52.43
2019-06-26T02:30:28.851Z,51.66
2019-06-26T02:33:00.991Z,54.27
2019-06-26T02:35:33.125Z,56.29
2019-06-26T02:38:05.063Z,58.07
2019-06-26T02:40:37.214Z,59.71
2019-06-26T02:43:09.736Z,61.44
2019-06-26T02:45:42.016Z,61.92
2019-06-26T02:48:14.089Z,63.86
2019-06-26T02:50:46.128Z,60.04
2019-06-26T02:53:18.195Z,53.37
2019-06-26T02:55:50.231Z,52.69
2019-06-26T02:58:22.146Z,54.98
2019-06-26T03:00:54.342Z,57.20
2019-06-26T03:03:26.488Z,59.38
2019-06-26T03:05:58.415Z,60.94
2019-06-26T03:08:30.388Z,62.02
2019-06-26T03:11:02.484Z,63.12
2019-06-26T03:13:34.304Z,60.67
2019-06-26T03:16:06.486Z,53.72
2019-06-26T03:18:38.648Z,52.10
2019-06-26T03:21:10.680Z,53.85
2019-06-26T03:23:42.687Z,56.64
2019-06-26T03:26:14.665Z,59.09
2019-06-26T03:28:46.671Z,60.72
2019-06-26T03:31:18.725Z,61.61
2019-06-26T03:33:50.816Z,62.76
2019-06-26T03:36:23.002Z,59.49
2019-06-26T03:38:55.035Z,55.89
2019-06-26T03:41:27.147Z,57.83
2019-06-26T03:43:58.990Z,59.05
2019-06-26T03:46:31.095Z,60.43
2019-06-26T03:49:03.000Z,62.13
2019-06-26T03:51:35.066Z,64.17
2019-06-26T03:54:07.140Z,59.81
2019-06-26T03:56:39.098Z,56.51
2019-06-26T03:59:11.105Z,57.62
2019-06-26T04:01:43.316Z,60.67
2019-06-26T04:04:15.392Z,60.60
2019-06-26T04:06:47.393Z,63.12
2019-06-26T04:09:19.416Z,59.99
2019-06-26T04:11:51.422Z,52.35
2019-06-26T04:14:23.382Z,52.32
2019-06-26T04:16:55.601Z,55.44
2019-06-26T04:19:27.697Z,56.70
2019-06-26T04:21:59.739Z,60.01
2019-06-26T04:24:31.733Z,61.61
2019-06-26T04:27:03.860Z,61.26
2019-06-26T04:29:35.854Z,62.82
2019-06-26T04:32:09.085Z,59.96
2019-06-26T04:34:40.838Z,51.76
2019-06-26T04:37:12.813Z,51.78
2019-06-26T04:39:44.766Z,54.91
2019-06-26T04:42:16.746Z,56.55
2019-06-26T04:44:48.752Z,58.17
2019-06-26T04:47:20.585Z,59.15
2019-06-26T04:49:52.588Z,60.14
2019-06-26T04:52:24.517Z,60.59
2019-06-26T04:54:56.679Z,61.51
2019-06-26T04:57:28.579Z,62.17
2019-06-26T05:00:00.490Z,62.82
2019-06-26T05:02:32.465Z,58.88
2019-06-26T05:05:06.556Z,55.09
2019-06-26T05:07:38.748Z,56.86
2019-06-26T05:10:11.098Z,58.65
2019-06-26T05:12:43.159Z,59.91
2019-06-26T05:15:15.522Z,60.79
2019-06-26T05:17:47.492Z,61.94
2019-06-26T05:20:19.526Z,61.87
2019-06-26T05:22:51.825Z,62.86
2019-06-26T05:25:23.632Z,58.53
2019-06-26T05:27:55.846Z,55.27
2019-06-26T05:30:27.986Z,56.55
2019-06-26T05:33:00.219Z,58.29
2019-06-26T05:35:35.023Z,58.41
2019-06-26T05:38:06.153Z,60.48
2019-06-26T05:40:38.207Z,60.32
2019-06-26T05:43:10.181Z,61.58
2019-06-26T05:45:42.132Z,62.21
2019-06-26T05:48:14.287Z,61.64
2019-06-26T05:50:46.407Z,61.70
2019-06-26T05:53:18.379Z,62.96
2019-06-26T05:55:50.332Z,57.90
2019-06-26T05:58:22.348Z,54.75
2019-06-26T06:00:55.397Z,54.76
2019-06-26T06:03:27.450Z,56.03
2019-06-26T06:05:59.486Z,56.67
2019-06-26T06:08:31.464Z,56.63
2019-06-26T06:11:03.549Z,57.00
2019-06-26T06:13:35.575Z,58.04
2019-06-26T06:16:07.548Z,58.46
2019-06-26T06:18:39.588Z,59.04
2019-06-26T06:21:11.499Z,59.82
2019-06-26T06:23:43.335Z,58.59
2019-06-26T06:26:15.493Z,60.93
2019-06-26T06:28:47.566Z,60.76
2019-06-26T06:31:20.831Z,60.70
2019-06-26T06:33:52.841Z,60.72
2019-06-26T06:36:25.979Z,60.67
2019-06-26T06:38:57.874Z,61.60
2019-06-26T06:41:29.807Z,60.93
2019-06-26T06:44:01.813Z,60.76
2019-06-26T06:46:33.956Z,60.07
2019-06-26T06:49:06.032Z,61.36
2019-06-26T06:51:38.311Z,60.55
2019-06-26T06:54:10.366Z,59.76
2019-06-26T06:56:42.533Z,60.66
2019-06-26T06:59:14.498Z,60.57
2019-06-26T07:01:46.457Z,60.45
2019-06-26T07:04:18.543Z,61.13
2019-06-26T07:06:50.438Z,59.63
2019-06-26T07:09:24.855Z,59.71
2019-06-26T07:11:56.897Z,59.09
2019-06-26T07:14:29.037Z,58.78
2019-06-26T07:17:01.601Z,60.07
2019-06-26T07:19:33.829Z,60.44
2019-06-26T07:22:07.549Z,58.31
2019-06-26T07:24:39.539Z,57.77
2019-06-26T07:27:11.547Z,58.16
2019-06-26T07:29:43.379Z,58.28
2019-06-26T07:32:15.413Z,59.12
2019-06-26T07:34:47.822Z,57.65
2019-06-26T07:37:20.330Z,58.14
2019-06-26T07:39:52.377Z,56.03
2019-06-26T07:42:24.402Z,57.74
2019-06-26T07:44:57.687Z,57.68
2019-06-26T07:47:42.415Z,56.46
2019-06-26T07:50:03.394Z,55.54
2019-06-26T07:52:35.823Z,54.53
2019-06-26T07:55:11.772Z,55.41
2019-06-26T07:57:43.247Z,54.90
2019-06-26T08:00:16.192Z,54.73
2019-06-26T08:02:48.746Z,54.98
2019-06-26T08:05:21.053Z,54.29
2019-06-26T08:07:58.536Z,54.53
2019-06-26T08:10:33.558Z,53.02
2019-06-26T08:13:05.666Z,54.00
2019-06-26T08:15:37.634Z,53.32
2019-06-26T08:18:09.509Z,52.49
2019-06-26T08:20:55.491Z,50.48
2019-06-26T08:23:15.145Z,49.76
2019-06-26T08:25:47.189Z,50.83
2019-06-26T08:28:19.255Z,51.73
2019-06-26T08:30:51.381Z,49.65
2019-06-26T08:33:23.357Z,49.81
2019-06-26T08:35:55.474Z,48.69
2019-06-26T08:38:27.358Z,47.75
2019-06-26T08:40:59.357Z,47.18
2019-06-26T08:43:31.668Z,47.29
2019-06-26T08:46:03.605Z,46.82
2019-06-26T08:48:40.027Z,45.60
2019-06-26T08:51:09.264Z,44.86
2019-06-26T08:53:41.540Z,45.40
2019-06-26T08:56:13.612Z,46.00
2019-06-26T08:58:45.507Z,45.14
2019-06-26T09:01:17.538Z,45.08
2019-06-26T09:03:49.494Z,45.02
2019-06-26T09:06:21.560Z,44.58
2019-06-26T09:08:53.548Z,44.54
2019-06-26T09:11:25.685Z,43.43
2019-06-26T09:13:58.142Z,42.67
2019-06-26T09:16:30.236Z,42.87
2019-06-26T09:19:02.270Z,42.30
2019-06-26T09:21:42.526Z,41.71
2019-06-26T09:24:15.015Z,43.12
2019-06-26T09:26:46.983Z,42.48
2019-06-26T09:29:19.235Z,42.95
2019-06-26T09:31:51.207Z,42.01
2019-06-26T09:34:23.441Z,42.49
2019-06-26T09:36:55.470Z,42.27
2019-06-26T09:39:27.720Z,42.75
2019-06-26T09:41:59.761Z,42.85
2019-06-26T09:44:31.643Z,41.53
2019-06-26T09:47:03.725Z,41.63
2019-06-26T09:49:35.746Z,41.11
2019-06-26T09:52:07.715Z,41.67
2019-06-26T09:54:39.832Z,40.79
2019-06-26T09:57:11.824Z,41.98
2019-06-26T09:59:43.767Z,42.00
2019-06-26T10:02:15.912Z,41.69
2019-06-26T10:04:47.928Z,41.83
2019-06-26T10:07:20.004Z,41.81
2019-06-26T10:09:52.001Z,40.71
2019-06-26T10:12:23.969Z,40.36
2019-06-26T10:14:55.891Z,40.24
2019-06-26T10:17:27.834Z,41.60
2019-06-26T10:19:59.771Z,40.01
2019-06-26T10:22:31.734Z,40.79
2019-06-26T10:25:04.416Z,40.50
2019-06-26T10:27:36.550Z,42.00
2019-06-26T10:30:09.476Z,40.78
2019-06-26T10:32:41.423Z,41.26
2019-06-26T10:35:13.969Z,39.69
2019-06-26T10:37:45.998Z,38.14
2019-06-26T10:40:18.722Z,37.92
2019-06-26T10:42:51.132Z,39.75
2019-06-26T10:45:23.299Z,38.27
2019-06-26T10:47:55.399Z,37.55
2019-06-26T10:50:27.398Z,37.59
2019-06-26T10:53:00.281Z,37.73
2019-06-26T10:55:32.315Z,38.80
2019-06-26T10:58:04.329Z,38.21
2019-06-26T11:00:36.592Z,37.99
2019-06-26T11:03:08.597Z,37.42
2019-06-26T11:05:41.425Z,36.21
2019-06-26T11:08:13.381Z,36.61
2019-06-26T11:10:45.352Z,36.65
2019-06-26T11:13:17.367Z,36.87
2019-06-26T11:15:49.637Z,35.32
2019-06-26T11:18:21.508Z,36.26
2019-06-26T11:20:53.414Z,35.27
2019-06-26T11:23:25.426Z,33.99
2019-06-26T11:25:57.420Z,34.55
2019-06-26T11:28:29.417Z,35.07
2019-06-26T11:31:01.302Z,34.23
2019-06-26T11:33:33.268Z,31.96
2019-06-26T11:36:05.234Z,32.54
2019-06-26T11:38:37.254Z,32.76
2019-06-26T11:41:09.225Z,30.97
2019-06-26T11:43:41.173Z,31.72
2019-06-26T11:46:13.613Z,30.69
2019-06-26T11:48:45.819Z,30.44
2019-06-26T11:51:19.057Z,32.59
2019-06-26T11:53:51.152Z,31.77
2019-06-26T11:56:23.281Z,31.27
2019-06-26T11:58:56.934Z,32.37
2019-06-26T12:01:29.361Z,30.44
2019-06-26T12:04:01.316Z,32.20
2019-06-26T12:06:33.288Z,29.96
2019-06-26T12:09:08.961Z,30.62
2019-06-26T12:11:41.179Z,30.78
2019-06-26T12:14:13.302Z,31.42
2019-06-26T12:16:45.534Z,28.99
2019-06-26T12:19:20.892Z,29.15
2019-06-26T12:21:51.117Z,29.16
2019-06-26T12:24:26.334Z,28.97
2019-06-26T12:26:56.750Z,29.21
2019-06-26T12:29:31.992Z,29.25
2019-06-26T12:32:02.509Z,29.49
2019-06-26T12:34:34.384Z,28.37
2019-06-26T12:37:06.418Z,27.19
2019-06-26T12:39:38.354Z,26.93
2019-06-26T12:42:10.320Z,27.65
2019-06-26T12:44:42.272Z,28.31
2019-06-26T12:47:14.324Z,27.57
2019-06-26T12:49:46.198Z,27.48
2019-06-26T12:52:18.345Z,28.31
2019-06-26T12:54:50.293Z,26.79
2019-06-26T12:57:22.258Z,27.31
2019-06-26T12:59:57.721Z,27.24
2019-06-26T13:02:27.797Z,25.69
2019-06-26T13:04:59.744Z,25.78
2019-06-26T13:07:32.408Z,25.56
2019-06-26T13:10:07.617Z,25.29
2019-06-26T13:12:39.825Z,26.56
2019-06-26T13:15:12.973Z,26.03
2019-06-26T13:17:45.114Z,26.01
2019-06-26T13:20:17.141Z,26.22
2019-06-26T13:22:49.742Z,25.57
2019-06-26T13:25:21.757Z,25.57
2019-06-26T13:27:55.135Z,26.05
2019-06-26T13:30:34.605Z,25.61
2019-06-26T13:33:06.638Z,25.81
2019-06-26T13:35:38.651Z,25.89
2019-06-26T13:38:10.683Z,24.55
2019-06-26T13:40:42.692Z,23.38
2019-06-26T13:43:14.600Z,22.29
2019-06-26T13:45:46.625Z,22.16
2019-06-26T13:48:18.596Z,22.26
2019-06-26T13:50:50.854Z,23.69
2019-06-26T13:53:25.756Z,22.91
2019-06-26T13:55:57.715Z,22.75
2019-06-26T13:58:29.744Z,23.50
2019-06-26T14:01:01.708Z,22.71
2019-06-26T14:03:33.744Z,22.26
2019-06-26T14:06:05.627Z,22.81
2019-06-26T14:08:37.599Z,22.94
2019-06-26T14:11:10.136Z,22.89
2019-06-26T14:13:42.289Z,22.80
2019-06-26T14:16:14.182Z,23.03
2019-06-26T14:18:46.183Z,22.93
2019-06-26T14:21:25.568Z,22.93
2019-06-26T14:23:51.883Z,22.89
2019-06-26T14:26:23.893Z,23.04
2019-06-26T14:28:56.161Z,22.87
2019-06-26T14:31:28.487Z,23.53
2019-06-26T14:34:00.451Z,23.85
2019-06-26T14:36:33.667Z,24.39
2019-06-26T14:39:07.301Z,23.68
2019-06-26T14:41:39.402Z,22.93
2019-06-26T14:44:11.434Z,23.08
2019-06-26T14:46:43.388Z,23.37
2019-06-26T14:49:16.414Z,23.41
2019-06-26T14:51:49.364Z,23.47
2019-06-26T14:54:21.393Z,23.02
2019-06-26T14:56:53.280Z,23.34
2019-06-26T14:59:25.302Z,23.57
2019-06-26T15:01:57.167Z,22.77
2019-06-26T15:04:29.211Z,23.14
2019-06-26T15:07:01.227Z,22.95
2019-06-26T15:09:33.198Z,22.98
2019-06-26T15:12:05.144Z,23.51
2019-06-26T15:14:37.114Z,23.68
2019-06-26T15:17:09.121Z,24.49
2019-06-26T15:19:41.207Z,24.20
2019-06-26T15:22:14.139Z,24.07
2019-06-26T15:24:46.113Z,24.88
2019-06-26T15:27:17.993Z,24.56
2019-06-26T15:29:49.951Z,24.47
2019-06-26T15:32:21.896Z,23.53
2019-06-26T15:34:53.786Z,23.11
2019-06-26T15:40:02.527Z,23.31
2019-06-26T15:42:34.545Z,22.98
2019-06-26T15:45:09.550Z,23.12
2019-06-26T15:47:41.554Z,23.24
2019-06-26T15:50:14.820Z,22.75
2019-06-26T15:52:46.763Z,22.31
2019-06-26T15:55:18.722Z,21.08
2019-06-26T15:57:50.656Z,20.83
2019-06-26T16:00:22.777Z,20.00
2019-06-26T16:02:55.215Z,19.54
2019-06-26T16:05:27.246Z,19.43
2019-06-26T16:07:59.179Z,18.48
2019-06-26T16:10:34.456Z,18.69
2019-06-26T16:13:05.150Z,18.59
2019-06-26T16:15:37.601Z,18.31
2019-06-26T16:18:09.377Z,18.50
2019-06-26T16:20:41.348Z,18.36
2019-06-26T16:23:13.800Z,18.39
2019-06-26T16:25:45.781Z,18.48
2019-06-26T16:28:17.871Z,18.27
2019-06-26T16:30:49.765Z,18.06
2019-06-26T16:33:21.772Z,18.12
2019-06-26T16:35:53.807Z,17.88
2019-06-26T16:38:25.764Z,18.01
2019-06-26T16:40:57.812Z,18.13
2019-06-26T16:43:29.624Z,18.14
2019-06-26T16:46:01.714Z,18.38
2019-06-26T16:48:33.732Z,18.61
2019-06-26T16:51:05.791Z,18.51
2019-06-26T16:53:37.893Z,18.57
2019-06-26T16:56:09.992Z,19.09
2019-06-26T16:58:41.876Z,18.94
2019-06-26T17:01:13.768Z,18.75
2019-06-26T17:03:45.792Z,18.78
2019-06-26T17:06:17.823Z,18.83
2019-06-26T17:08:50.103Z,18.86
2019-06-26T17:11:22.165Z,19.20
2019-06-26T17:13:54.050Z,19.29
2019-06-26T17:16:25.941Z,19.66
2019-06-26T17:18:57.912Z,19.59
2019-06-26T17:21:30.058Z,19.96
2019-06-26T17:24:02.000Z,20.27
2019-06-26T17:26:33.887Z,20.54
2019-06-26T17:29:05.835Z,20.99
2019-06-26T17:31:37.887Z,21.25
2019-06-26T17:34:09.844Z,21.93
2019-06-26T17:36:41.813Z,23.17
2019-06-26T17:39:13.795Z,22.58
2019-06-26T17:41:45.964Z,22.76
2019-06-26T17:44:18.825Z,23.06
2019-06-26T17:46:50.779Z,23.18
2019-06-26T17:49:22.757Z,23.73
2019-06-26T17:51:54.734Z,23.88
2019-06-26T17:54:29.652Z,24.49
2019-06-26T17:57:01.603Z,25.09
2019-06-26T17:59:33.759Z,25.58
2019-06-26T18:02:06.943Z,26.14
2019-06-26T18:04:39.011Z,26.77
2019-06-26T18:07:10.947Z,27.26
2019-06-26T18:09:42.901Z,27.36
2019-06-26T18:12:15.255Z,27.36
2019-06-26T18:14:47.109Z,27.62
2019-06-26T18:17:22.425Z,28.47
2019-06-26T18:19:53.991Z,29.20
2019-06-26T18:22:26.112Z,29.26
2019-06-26T18:24:58.128Z,30.39
2019-06-26T18:27:30.166Z,30.84
2019-06-26T18:30:03.151Z,31.43
2019-06-26T18:32:35.326Z,31.13
2019-06-26T18:35:08.544Z,31.37
2019-06-26T18:37:40.433Z,31.02
2019-06-26T18:40:12.844Z,31.13
2019-06-26T18:42:45.906Z,31.82
2019-06-26T18:45:18.341Z,32.23
2019-06-26T18:47:50.386Z,32.62
2019-06-26T18:50:22.524Z,33.08
2019-06-26T18:52:54.562Z,33.52
2019-06-26T18:55:26.425Z,33.94
2019-06-26T18:57:58.303Z,34.62
2019-06-26T19:00:30.179Z,34.78
2019-06-26T19:03:02.161Z,34.63
2019-06-26T19:05:34.568Z,35.48
2019-06-26T19:08:06.672Z,35.72
2019-06-26T19:10:38.700Z,36.09
2019-06-26T19:13:10.881Z,36.40
2019-06-26T19:15:42.975Z,36.82
2019-06-26T19:18:15.437Z,36.96
2019-06-26T19:20:47.380Z,37.67
2019-06-26T19:23:20.482Z,37.38
2019-06-26T19:25:52.578Z,38.20
2019-06-26T19:28:24.554Z,38.66
2019-06-26T19:30:56.765Z,38.80
2019-06-26T19:33:28.866Z,38.87
2019-06-26T19:36:01.054Z,39.65
2019-06-26T19:38:33.065Z,39.73
2019-06-26T19:41:08.523Z,39.96
2019-06-26T19:43:40.405Z,40.04
2019-06-26T19:46:12.355Z,40.66
2019-06-26T19:48:44.236Z,40.90
2019-06-26T19:51:16.344Z,41.36
2019-06-26T19:53:48.315Z,41.85
2019-06-26T19:56:20.336Z,42.00
2019-06-26T19:58:52.290Z,42.04
2019-06-26T20:01:24.776Z,42.86
2019-06-26T20:03:57.007Z,43.22
2019-06-26T20:06:29.097Z,43.47
2019-06-26T20:09:04.500Z,44.32
2019-06-26T20:11:36.674Z,44.48
2019-06-26T20:14:08.808Z,44.92
2019-06-26T20:16:40.962Z,45.49
2019-06-26T20:19:12.966Z,45.55
2019-06-26T20:21:45.159Z,46.00
2019-06-26T20:24:17.127Z,46.19
2019-06-26T20:26:49.124Z,46.74
2019-06-26T20:29:21.124Z,46.86
2019-06-26T20:31:53.040Z,47.05
2019-06-26T20:34:25.699Z,47.13
2019-06-26T20:36:57.719Z,47.39
2019-06-26T20:39:29.987Z,47.71
2019-06-26T20:42:03.063Z,48.03
2019-06-26T20:44:35.827Z,48.26
2019-06-26T20:47:07.966Z,48.70
2019-06-26T20:49:52.773Z,48.81
2019-06-26T20:52:16.849Z,49.09
2019-06-26T20:55:01.020Z,49.65
2019-06-26T20:57:26.286Z,49.59
2019-06-26T20:59:58.285Z,49.85
2019-06-26T21:02:30.298Z,50.51
2019-06-26T21:05:02.350Z,50.74
2019-06-26T21:07:34.424Z,50.65
2019-06-26T21:10:06.862Z,51.04
2019-06-26T21:12:38.756Z,50.86
2019-06-26T21:15:10.846Z,51.14
2019-06-26T21:17:42.860Z,51.12
2019-06-26T21:20:16.167Z,51.14
2019-06-26T21:22:48.516Z,51.29
2019-06-26T21:25:20.596Z,51.55
2019-06-26T21:27:52.532Z,51.16
2019-06-26T21:30:24.458Z,51.06
2019-06-26T21:32:56.599Z,51.00
2019-06-26T21:35:28.526Z,51.12
2019-06-26T21:38:00.395Z,51.20
2019-06-26T21:40:32.339Z,51.39
2019-06-26T21:43:04.277Z,51.60
2019-06-26T21:45:36.201Z,51.69
2019-06-26T21:48:08.139Z,52.26
2019-06-26T21:50:40.078Z,52.18
2019-06-26T21:53:12.013Z,52.49
2019-06-26T21:55:44.427Z,53.08
2019-06-26T21:58:33.991Z,53.07
2019-06-26T22:01:23.948Z,53.52
2019-06-26T22:04:14.063Z,53.42
2019-06-26T22:06:47.727Z,53.77
2019-06-26T22:09:37.476Z,54.00
2019-06-26T22:12:09.622Z,54.46
2019-06-26T22:14:41.713Z,54.93
2019-06-26T22:17:13.705Z,54.91
2019-06-26T22:19:45.802Z,55.10
2019-06-26T22:22:17.857Z,55.26
2019-06-26T22:24:49.868Z,55.40
2019-06-26T22:27:21.786Z,55.73
2019-06-26T22:29:54.124Z,56.01
2019-06-26T22:32:26.190Z,56.22
2019-06-26T22:34:58.483Z,56.13
2019-06-26T22:37:33.500Z,56.34
2019-06-26T22:40:07.183Z,56.73
2019-06-26T22:42:39.331Z,57.00
2019-06-26T22:45:11.713Z,57.43
2019-06-26T22:47:44.076Z,57.39
2019-06-26T22:50:16.227Z,57.54
2019-06-26T22:52:49.198Z,58.05
2019-06-26T22:55:21.272Z,57.97
2019-06-26T22:57:53.286Z,58.36
2019-06-26T23:00:25.682Z,57.97
2019-06-26T23:02:57.803Z,58.48
2019-06-26T23:05:29.739Z,58.71
2019-06-26T23:08:01.670Z,59.07
2019-06-26T23:10:33.781Z,59.21
2019-06-26T23:13:09.370Z,59.08
2019-06-26T23:15:39.606Z,58.31
2019-06-26T23:18:12.683Z,57.65
2019-06-26T23:20:44.643Z,57.34
2019-06-26T23:23:16.642Z,56.84
2019-06-26T23:25:48.506Z,56.16
2019-06-26T23:28:20.584Z,55.67
2019-06-26T23:30:52.517Z,55.76
2019-06-26T23:33:24.388Z,55.80
2019-06-26T23:35:56.422Z,55.92
2019-06-26T23:38:28.306Z,56.12
2019-06-26T23:41:00.306Z,55.92
2019-06-26T23:43:32.438Z,55.92
2019-06-26T23:46:04.506Z,55.59
2019-06-26T23:48:36.624Z,55.65
2019-06-26T23:51:08.479Z,55.29
2019-06-26T23:53:40.383Z,55.07
2019-06-26T23:56:12.251Z,54.89
2019-06-26T23:58:44.160Z,54.65
